createdAt,value
2018-04-14T00:01:27.109Z,6.10
2018-04-14T00:03:54.609Z,6.03
2018-04-14T00:06:22.117Z,6.03
2018-04-14T00:08:49.618Z,6.03
2018-04-14T00:11:17.950Z,7.07
2018-04-14T00:13:45.389Z,6.53
2018-04-14T00:16:12.914Z,5.90
2018-04-14T00:18:41.972Z,6.63
2018-04-14T00:21:09.513Z,7.83
2018-04-14T00:23:37.016Z,6.90
2018-04-14T00:26:04.529Z,7.87
2018-04-14T00:28:32.025Z,8.23
2018-04-14T00:30:59.562Z,8.07
2018-04-14T00:33:27.047Z,7.60
2018-04-14T00:35:54.564Z,7.80
2018-04-14T00:38:22.831Z,7.00
2018-04-14T00:40:50.329Z,7.03
2018-04-14T00:43:17.819Z,8.67
2018-04-14T00:45:45.351Z,8.10
2018-04-14T00:48:12.846Z,7.67
2018-04-14T00:50:40.500Z,7.40
2018-04-14T00:53:19.772Z,7.17
2018-04-14T00:55:47.274Z,8.20
2018-04-14T00:58:14.791Z,9.10
2018-04-14T01:00:42.319Z,8.57
2018-04-14T01:03:09.866Z,9.20
2018-04-14T01:05:37.374Z,10.00
2018-04-14T01:08:04.925Z,9.67
2018-04-14T01:10:32.419Z,8.60
2018-04-14T01:13:00.688Z,8.40
2018-04-14T01:15:28.295Z,9.03
2018-04-14T01:17:55.824Z,9.40
2018-04-14T01:20:23.328Z,9.43
2018-04-14T01:22:50.834Z,8.93
2018-04-14T01:25:18.346Z,9.90
2018-04-14T01:27:45.872Z,9.27
2018-04-14T01:30:13.494Z,9.43
2018-04-14T01:32:41.000Z,10.60
2018-04-14T01:35:08.482Z,9.63
2018-04-14T01:37:36.760Z,9.27
2018-04-14T01:40:04.276Z,9.37
2018-04-14T01:42:31.777Z,10.40
2018-04-14T01:44:59.302Z,10.70
2018-04-14T01:47:26.806Z,10.00
2018-04-14T01:49:54.317Z,11.53
2018-04-14T01:52:21.830Z,10.93
2018-04-14T01:54:49.352Z,11.30
2018-04-14T01:57:16.868Z,12.60
2018-04-14T01:59:44.353Z,12.33
2018-04-14T02:02:11.870Z,10.80
2018-04-14T02:04:39.378Z,12.10
2018-04-14T02:07:07.682Z,12.63
2018-04-14T02:09:35.183Z,10.67
2018-04-14T02:12:02.712Z,10.90
2018-04-14T02:14:30.219Z,11.13
2018-04-14T02:16:57.717Z,11.90
2018-04-14T02:19:25.221Z,13.67
2018-04-14T02:21:52.755Z,15.00
2018-04-14T02:24:20.272Z,13.70
2018-04-14T02:26:48.357Z,12.80
2018-04-14T02:29:16.651Z,14.17
2018-04-14T02:31:44.963Z,13.90
2018-04-14T02:34:12.596Z,12.63
2018-04-14T02:36:40.870Z,11.43
2018-04-14T02:39:09.148Z,12.50
2018-04-14T02:41:36.655Z,13.30
2018-04-14T02:44:04.180Z,13.50
2018-04-14T02:46:32.451Z,12.70
2018-04-14T02:49:00.068Z,13.90
2018-04-14T02:51:27.574Z,12.80
2018-04-14T02:53:56.682Z,13.30
2018-04-14T02:56:24.286Z,12.10
2018-04-14T02:58:51.870Z,12.53
2018-04-14T03:01:19.352Z,12.07
2018-04-14T03:03:47.089Z,13.33
2018-04-14T03:06:14.618Z,11.70
2018-04-14T03:08:42.890Z,11.93
2018-04-14T03:11:10.400Z,12.83
2018-04-14T03:13:38.063Z,12.60
2018-04-14T03:16:05.577Z,13.57
2018-04-14T03:18:33.128Z,12.47
2018-04-14T03:21:00.626Z,12.93
2018-04-14T03:23:28.893Z,12.60
2018-04-14T03:25:56.564Z,12.53
2018-04-14T03:28:24.843Z,14.10
2018-04-14T03:30:53.120Z,14.93
2018-04-14T03:33:21.391Z,14.57
2018-04-14T03:35:49.056Z,15.47
2018-04-14T03:38:16.579Z,15.37
2018-04-14T03:40:44.092Z,14.47
2018-04-14T03:43:11.588Z,13.50
2018-04-14T03:45:39.870Z,15.10
2018-04-14T03:48:07.399Z,13.33
2018-04-14T03:50:35.680Z,14.00
2018-04-14T03:53:03.201Z,14.00
2018-04-14T03:55:30.700Z,13.97
2018-04-14T03:57:58.985Z,13.07
2018-04-14T04:00:28.900Z,11.30
2018-04-14T04:02:57.893Z,10.73
2018-04-14T04:05:26.996Z,10.93
2018-04-14T04:07:54.611Z,10.57
2018-04-14T04:10:22.102Z,10.43
2018-04-14T04:12:49.621Z,13.10
2018-04-14T04:15:17.764Z,11.30
2018-04-14T04:17:46.027Z,12.50
2018-04-14T04:20:23.233Z,13.40
2018-04-14T04:23:03.473Z,13.20
2018-04-14T04:25:39.830Z,15.00
2018-04-14T04:28:07.394Z,13.40
2018-04-14T04:30:34.869Z,11.50
2018-04-14T04:33:02.370Z,13.10
2018-04-14T04:35:29.880Z,13.27
2018-04-14T04:37:57.554Z,13.03
2018-04-14T04:40:25.092Z,13.13
2018-04-14T04:42:52.580Z,12.10
2018-04-14T04:45:20.061Z,13.67
2018-04-14T04:47:49.660Z,11.03
2018-04-14T04:50:17.198Z,11.80
2018-04-14T04:52:44.796Z,12.97
2018-04-14T04:55:12.306Z,12.93
2018-04-14T04:57:40.306Z,11.87
2018-04-14T05:00:07.874Z,12.80
2018-04-14T05:02:35.401Z,12.47
2018-04-14T05:05:02.898Z,13.03
2018-04-14T05:07:30.404Z,15.20
2018-04-14T05:09:58.770Z,15.23
2018-04-14T05:12:26.507Z,15.73
2018-04-14T05:14:54.055Z,17.30
2018-04-14T05:17:22.389Z,17.20
2018-04-14T05:19:50.646Z,18.27
2018-04-14T05:22:18.158Z,16.97
2018-04-14T05:24:46.537Z,18.50
2018-04-14T05:27:14.819Z,20.73
2018-04-14T05:29:43.140Z,21.17
2018-04-14T05:32:10.648Z,21.43
2018-04-14T05:34:38.191Z,18.13
2018-04-14T05:37:05.776Z,20.27
2018-04-14T05:39:34.067Z,21.33
2018-04-14T05:42:02.870Z,20.00
2018-04-14T05:44:31.142Z,20.87
2018-04-14T05:46:59.401Z,21.93
2018-04-14T05:49:27.098Z,20.70
2018-04-14T05:51:55.612Z,19.17
2018-04-14T05:54:23.205Z,20.73
2018-04-14T05:56:50.734Z,21.77
2018-04-14T05:59:18.250Z,19.37
2018-04-14T06:01:47.245Z,23.00
2018-04-14T06:04:14.798Z,20.93
2018-04-14T06:06:42.450Z,18.70
2018-04-14T06:09:10.063Z,20.23
2018-04-14T06:11:37.540Z,17.53
2018-04-14T06:14:05.035Z,19.20
2018-04-14T06:16:32.560Z,20.50
2018-04-14T06:19:00.845Z,19.30
2018-04-14T06:21:29.137Z,16.90
2018-04-14T06:23:56.636Z,17.97
2018-04-14T06:26:24.159Z,20.10
2018-04-14T06:28:51.661Z,17.40
2018-04-14T06:31:19.262Z,17.67
2018-04-14T06:33:48.425Z,20.20
2018-04-14T06:36:15.904Z,14.67
2018-04-14T06:38:43.430Z,16.07
2018-04-14T06:41:11.028Z,19.50
2018-04-14T06:43:38.591Z,18.10
2018-04-14T06:46:06.098Z,18.83
2018-04-14T06:48:34.388Z,20.23
2018-04-14T06:51:01.891Z,21.37
2018-04-14T06:53:29.435Z,20.33
2018-04-14T06:55:56.932Z,21.50
2018-04-14T06:58:24.549Z,23.30
2018-04-14T07:00:52.099Z,21.80
2018-04-14T07:03:20.398Z,23.60
2018-04-14T07:05:47.907Z,24.67
2018-04-14T07:08:15.418Z,26.07
2018-04-14T07:10:42.934Z,25.67
2018-04-14T07:13:10.434Z,26.03
2018-04-14T07:15:38.069Z,25.90
2018-04-14T07:18:05.636Z,26.67
2018-04-14T07:20:36.008Z,26.97
2018-04-14T07:23:04.356Z,26.00
2018-04-14T07:25:32.642Z,25.87
2018-04-14T07:28:00.910Z,25.77
2018-04-14T07:30:28.481Z,27.70
2018-04-14T07:32:55.984Z,24.23
2018-04-14T07:35:23.624Z,27.77
2018-04-14T07:37:51.906Z,27.57
2018-04-14T07:40:20.177Z,27.87
2018-04-14T07:42:47.724Z,25.33
2018-04-14T07:45:16.715Z,26.17
2018-04-14T07:47:44.289Z,28.70
2018-04-14T07:50:11.819Z,27.77
2018-04-14T07:52:39.327Z,26.80
2018-04-14T07:55:06.841Z,28.00
2018-04-14T07:57:36.074Z,29.67
2018-04-14T08:00:04.407Z,29.63
2018-04-14T08:02:31.990Z,29.33
2018-04-14T08:04:59.492Z,31.13
2018-04-14T08:07:27.024Z,31.07
2018-04-14T08:09:54.848Z,31.07
2018-04-14T08:12:23.149Z,31.77
2018-04-14T08:14:50.666Z,31.07
2018-04-14T08:17:19.331Z,31.87
2018-04-14T08:19:46.919Z,30.70
2018-04-14T08:22:17.096Z,29.53
2018-04-14T08:24:44.665Z,32.63
2018-04-14T08:27:12.174Z,29.50
2018-04-14T08:29:40.964Z,33.90
2018-04-14T08:32:10.470Z,33.40
2018-04-14T08:34:38.027Z,31.37
2018-04-14T08:37:07.028Z,31.73
2018-04-14T08:39:34.637Z,33.17
2018-04-14T08:42:05.182Z,30.73
2018-04-14T08:44:32.731Z,31.57
2018-04-14T08:47:00.268Z,33.13
2018-04-14T08:49:28.398Z,32.97
2018-04-14T08:51:55.914Z,31.13
2018-04-14T08:54:23.404Z,30.00
2018-04-14T08:56:50.900Z,32.57
2018-04-14T08:59:18.402Z,31.90
2018-04-14T09:01:45.909Z,32.30
2018-04-14T09:04:13.394Z,32.03
2018-04-14T09:06:41.029Z,30.90
2018-04-14T09:09:08.647Z,31.17
2018-04-14T09:11:36.156Z,29.73
2018-04-14T09:14:03.646Z,30.93
2018-04-14T09:16:31.170Z,30.17
2018-04-14T09:18:59.476Z,32.70
2018-04-14T09:21:27.024Z,30.90
2018-04-14T09:23:54.518Z,27.97
2018-04-14T09:26:22.029Z,29.90
2018-04-14T09:28:50.304Z,28.67
2018-04-14T09:31:17.834Z,28.33
2018-04-14T09:33:45.508Z,26.80
2018-04-14T09:36:13.073Z,26.27
2018-04-14T09:38:40.620Z,29.73
2018-04-14T09:41:08.176Z,27.50
2018-04-14T09:43:35.669Z,25.87
2018-04-14T09:46:03.168Z,25.57
2018-04-14T09:48:31.442Z,23.20
2018-04-14T09:50:59.765Z,23.30
2018-04-14T09:53:27.997Z,23.67
2018-04-14T09:55:55.526Z,23.77
2018-04-14T09:58:23.024Z,22.97
2018-04-14T10:00:56.176Z,25.20
2018-04-14T10:03:23.718Z,22.27
2018-04-14T10:05:51.278Z,21.27
2018-04-14T10:08:18.784Z,19.13
2018-04-14T10:10:46.292Z,18.67
2018-04-14T10:13:14.573Z,18.67
2018-04-14T10:15:42.870Z,22.13
2018-04-14T10:18:12.054Z,18.43
2018-04-14T10:20:39.549Z,19.07
2018-04-14T10:23:07.159Z,18.30
2018-04-14T10:25:34.676Z,20.03
2018-04-14T10:28:02.217Z,19.60
2018-04-14T10:30:29.869Z,19.30
2018-04-14T10:32:58.220Z,19.60
2018-04-14T10:35:25.767Z,17.33
2018-04-14T10:37:53.805Z,17.93
2018-04-14T10:40:21.248Z,18.50
2018-04-14T10:42:49.532Z,17.57
2018-04-14T10:45:17.833Z,19.90
2018-04-14T10:47:45.396Z,16.00
2018-04-14T10:50:12.906Z,18.07
2018-04-14T10:52:40.767Z,16.00
2018-04-14T10:55:08.297Z,16.50
2018-04-14T10:57:35.848Z,15.23
2018-04-14T11:00:04.115Z,17.47
2018-04-14T11:02:32.381Z,16.73
2018-04-14T11:05:01.411Z,16.20
2018-04-14T11:07:28.930Z,17.20
2018-04-14T11:09:56.433Z,17.53
2018-04-14T11:12:24.704Z,16.53
2018-04-14T11:14:52.954Z,17.20
2018-04-14T11:17:20.468Z,16.33
2018-04-14T11:19:47.979Z,16.20
2018-04-14T11:22:15.511Z,17.10
2018-04-14T11:24:42.996Z,17.50
2018-04-14T11:27:10.506Z,18.80
2018-04-14T11:29:39.389Z,17.00
2018-04-14T11:32:07.695Z,16.93
2018-04-14T11:34:35.201Z,15.73
2018-04-14T11:37:02.707Z,17.23
2018-04-14T11:39:30.989Z,15.33
2018-04-14T11:41:59.307Z,14.93
2018-04-14T11:44:26.890Z,17.23
2018-04-14T11:46:55.070Z,15.10
2018-04-14T11:49:22.565Z,14.33
2018-04-14T11:51:50.854Z,15.90
2018-04-14T11:54:19.142Z,17.93
2018-04-14T11:56:46.726Z,17.03
2018-04-14T11:59:16.379Z,17.00
2018-04-14T12:01:48.259Z,18.80
2018-04-14T12:04:17.819Z,17.30
2018-04-14T12:06:45.438Z,16.17
2018-04-14T12:09:20.186Z,16.27
2018-04-14T12:11:48.470Z,17.30
2018-04-14T12:14:17.533Z,15.90
2018-04-14T12:16:45.941Z,17.80
2018-04-14T12:19:14.319Z,17.70
2018-04-14T12:21:42.612Z,19.63
2018-04-14T12:24:10.897Z,21.13
2018-04-14T12:26:38.451Z,20.97
2018-04-14T12:29:06.730Z,21.37
2018-04-14T12:31:35.007Z,22.27
2018-04-14T12:34:02.562Z,20.67
2018-04-14T12:36:30.253Z,21.60
2018-04-14T12:38:58.549Z,21.80
2018-04-14T12:41:26.059Z,23.07
2018-04-14T12:43:53.684Z,22.23
2018-04-14T12:46:21.841Z,22.97
2018-04-14T12:48:49.380Z,22.27
2018-04-14T12:51:17.666Z,23.17
2018-04-14T12:53:45.208Z,23.23
2018-04-14T12:56:13.530Z,22.50
2018-04-14T12:58:42.620Z,21.20
2018-04-14T13:01:11.948Z,21.40
2018-04-14T13:03:39.461Z,22.23
2018-04-14T13:06:07.028Z,21.70
2018-04-14T13:08:35.507Z,22.50
2018-04-14T13:11:04.200Z,22.07
2018-04-14T13:13:31.727Z,21.70
2018-04-14T13:15:59.294Z,21.80
2018-04-14T13:18:27.839Z,19.07
2018-04-14T13:20:55.506Z,19.20
2018-04-14T13:23:24.284Z,20.30
2018-04-14T13:25:51.800Z,19.30
2018-04-14T13:28:19.596Z,22.50
2018-04-14T13:30:47.460Z,19.33
2018-04-14T13:33:15.742Z,19.67
2018-04-14T13:35:43.280Z,19.20
2018-04-14T13:38:10.769Z,19.77
2018-04-14T13:40:38.284Z,20.97
2018-04-14T13:43:06.572Z,18.37
2018-04-14T13:45:34.099Z,18.40
2018-04-14T13:48:01.644Z,21.00
2018-04-14T13:50:30.154Z,20.73
2018-04-14T13:52:59.896Z,21.40
2018-04-14T13:55:28.911Z,19.83
2018-04-14T13:57:56.713Z,21.60
2018-04-14T14:00:25.058Z,20.97
2018-04-14T14:02:52.559Z,21.13
2018-04-14T14:08:03.520Z,21.70
2018-04-14T14:10:31.040Z,20.87
2018-04-14T14:12:58.525Z,20.43
2018-04-14T14:15:26.894Z,20.63
2018-04-14T14:17:54.464Z,22.03
2018-04-14T14:20:23.107Z,22.00
2018-04-14T14:22:50.605Z,22.00
2018-04-14T14:25:18.928Z,20.50
2018-04-14T14:27:46.412Z,22.40
2018-04-14T14:30:13.925Z,21.63
2018-04-14T14:32:42.196Z,21.33
2018-04-14T14:35:10.503Z,21.60
2018-04-14T14:37:38.001Z,22.17
2018-04-14T14:40:05.516Z,21.10
2018-04-14T14:42:33.809Z,20.60
2018-04-14T14:45:02.130Z,21.00
2018-04-14T14:47:35.454Z,21.30
2018-04-14T14:50:08.775Z,25.17
2018-04-14T14:52:37.028Z,20.50
2018-04-14T14:55:04.535Z,21.03
2018-04-14T14:57:32.035Z,22.63
2018-04-14T14:59:59.715Z,21.73
2018-04-14T15:02:27.232Z,23.60
2018-04-14T15:04:54.761Z,23.13
2018-04-14T15:07:22.307Z,23.43
2018-04-14T15:09:49.803Z,23.03
2018-04-14T15:12:18.102Z,23.00
2018-04-14T15:14:47.815Z,23.57
2018-04-14T15:17:15.410Z,21.57
2018-04-14T15:19:43.719Z,21.80
2018-04-14T15:22:11.251Z,20.30
2018-04-14T15:24:38.767Z,19.70
2018-04-14T15:27:07.078Z,20.60
2018-04-14T15:29:34.609Z,21.47
2018-04-14T15:32:02.914Z,20.50
2018-04-14T15:34:30.429Z,20.10
2018-04-14T15:36:58.531Z,22.80
2018-04-14T15:39:26.797Z,20.33
2018-04-14T15:41:54.313Z,19.67
2018-04-14T15:44:22.597Z,20.57
2018-04-14T15:46:50.104Z,22.83
2018-04-14T15:49:18.598Z,19.40
2018-04-14T15:51:46.897Z,20.33
2018-04-14T15:54:14.633Z,18.67
2018-04-14T15:56:43.114Z,18.90
2018-04-14T15:59:11.644Z,18.30
2018-04-14T16:01:39.159Z,18.00
2018-04-14T16:04:09.789Z,19.50
2018-04-14T16:06:34.944Z,21.87
2018-04-14T16:09:02.456Z,20.90
2018-04-14T16:11:30.020Z,20.00
2018-04-14T16:13:57.593Z,22.80
2018-04-14T16:16:25.112Z,24.90
2018-04-14T16:18:52.764Z,24.73
2018-04-14T16:21:21.137Z,23.73
2018-04-14T16:23:48.752Z,23.63
2018-04-14T16:26:16.258Z,20.83
2018-04-14T16:28:43.790Z,21.43
2018-04-14T16:31:11.311Z,21.60
2018-04-14T16:33:39.192Z,22.53
2018-04-14T16:36:06.712Z,22.33
2018-04-14T16:38:34.290Z,22.00
2018-04-14T16:41:02.590Z,20.67
2018-04-14T16:43:31.024Z,21.60
2018-04-14T16:45:58.519Z,20.53
2018-04-14T16:48:26.041Z,20.70
2018-04-14T16:50:53.746Z,18.33
2018-04-14T16:53:22.027Z,19.50
2018-04-14T16:55:49.660Z,20.63
2018-04-14T16:58:17.177Z,18.53
2018-04-14T17:00:45.439Z,20.33
2018-04-14T17:03:13.712Z,18.50
2018-04-14T17:05:41.220Z,19.57
2018-04-14T17:08:08.835Z,18.60
2018-04-14T17:10:36.346Z,19.37
2018-04-14T17:13:03.966Z,20.37
2018-04-14T17:15:31.461Z,20.23
2018-04-14T17:17:59.924Z,20.10
2018-04-14T17:20:27.431Z,19.67
2018-04-14T17:22:54.964Z,20.23
2018-04-14T17:25:23.327Z,20.97
2018-04-14T17:27:50.861Z,20.90
2018-04-14T17:30:19.209Z,18.83
2018-04-14T17:32:46.867Z,21.67
2018-04-14T17:35:14.378Z,21.50
2018-04-14T17:37:41.881Z,21.00
2018-04-14T17:40:10.926Z,20.73
2018-04-14T17:42:38.459Z,20.67
2018-04-14T17:45:06.805Z,19.57
2018-04-14T17:47:34.347Z,20.30
2018-04-14T17:50:01.890Z,22.33
2018-04-14T17:52:29.469Z,26.63
2018-04-14T17:54:56.989Z,26.67
2018-04-14T17:57:25.260Z,32.50
2018-04-14T17:59:53.651Z,32.00
2018-04-14T18:02:21.918Z,31.90
2018-04-14T18:04:50.228Z,34.07
2018-04-14T18:07:17.719Z,32.90
2018-04-14T18:09:45.234Z,31.40
2018-04-14T18:12:13.543Z,32.53
2018-04-14T18:14:41.878Z,65.50
2018-04-14T18:17:10.327Z,76.57
2018-04-14T18:19:37.862Z,74.43
2018-04-14T18:22:05.569Z,70.03
2018-04-14T18:24:33.097Z,48.60
2018-04-14T18:27:00.738Z,52.43
2018-04-14T18:29:29.071Z,51.50
2018-04-14T18:31:57.311Z,48.70
2018-04-14T18:34:25.972Z,46.93
2018-04-14T18:36:53.476Z,48.57
2018-04-14T18:39:21.560Z,53.40
2018-04-14T18:41:49.053Z,53.67
2018-04-14T18:44:16.600Z,56.57
2018-04-14T18:46:44.137Z,81.43
2018-04-14T18:49:11.685Z,89.03
2018-04-14T18:51:40.276Z,72.50
2018-04-14T18:54:08.568Z,65.23
2018-04-14T18:56:36.111Z,59.00
2018-04-14T18:59:04.505Z,43.67
2018-04-14T19:01:32.757Z,37.17
2018-04-14T19:04:00.257Z,37.00
2018-04-14T19:06:29.496Z,33.23
2018-04-14T19:08:57.065Z,32.20
2018-04-14T19:11:24.669Z,31.90
2018-04-14T19:13:53.087Z,31.43
2018-04-14T19:16:20.632Z,33.60
2018-04-14T19:18:48.911Z,32.27
2018-04-14T19:21:17.179Z,30.93
2018-04-14T19:23:48.341Z,31.47
2018-04-14T19:26:19.091Z,32.20
2018-04-14T19:28:46.617Z,32.43
2018-04-14T19:31:14.249Z,32.30
2018-04-14T19:33:42.155Z,31.00
2018-04-14T19:36:11.280Z,30.43
2018-04-14T19:38:40.377Z,28.43
2018-04-14T19:41:09.018Z,30.87
2018-04-14T19:43:37.755Z,30.77
2018-04-14T19:46:06.025Z,29.93
2018-04-14T19:48:33.555Z,34.03
2018-04-14T19:51:01.056Z,34.17
2018-04-14T19:53:28.728Z,29.90
2018-04-14T19:55:57.001Z,37.23
2018-04-14T19:58:24.497Z,27.00
2018-04-14T20:00:52.053Z,28.67
2018-04-14T20:03:19.571Z,27.97
2018-04-14T20:05:47.088Z,29.70
2018-04-14T20:08:14.613Z,28.60
2018-04-14T20:10:42.956Z,31.33
2018-04-14T20:13:10.981Z,34.30
2018-04-14T20:15:39.254Z,30.10
2018-04-14T20:18:06.782Z,31.23
2018-04-14T20:20:34.305Z,26.90
2018-04-14T20:23:02.760Z,30.97
2018-04-14T20:25:30.317Z,29.67
2018-04-14T20:27:59.340Z,46.90
2018-04-14T20:30:27.611Z,31.30
2018-04-14T20:32:55.106Z,34.83
2018-04-14T20:35:22.686Z,32.77
2018-04-14T20:37:50.213Z,33.07
2018-04-14T20:40:18.507Z,25.93
2018-04-14T20:42:46.853Z,29.60
2018-04-14T20:45:14.337Z,27.27
2018-04-14T20:47:42.631Z,32.27
2018-04-14T20:50:10.907Z,28.67
2018-04-14T20:52:39.227Z,33.20
2018-04-14T20:55:06.797Z,31.57
2018-04-14T20:57:34.346Z,26.77
2018-04-14T21:00:01.845Z,28.37
2018-04-14T21:02:29.435Z,28.20
2018-04-14T21:04:57.686Z,30.67
2018-04-14T21:07:25.290Z,33.47
2018-04-14T21:09:53.909Z,31.83
2018-04-14T21:12:21.409Z,31.63
2018-04-14T21:14:48.931Z,31.57
2018-04-14T21:17:16.449Z,29.90
2018-04-14T21:19:45.087Z,31.63
2018-04-14T21:22:15.789Z,31.37
2018-04-14T21:24:43.354Z,32.57
2018-04-14T21:27:11.624Z,32.70
2018-04-14T21:29:39.404Z,35.00
2018-04-14T21:32:07.674Z,35.17
2018-04-14T21:34:36.061Z,33.20
2018-04-14T21:37:03.576Z,33.50
2018-04-14T21:39:34.121Z,34.73
2018-04-14T21:42:02.934Z,35.63
2018-04-14T21:44:31.268Z,37.90
2018-04-14T21:46:58.798Z,36.07
2018-04-14T21:49:26.412Z,35.87
2018-04-14T21:51:53.921Z,36.50
2018-04-14T21:54:21.526Z,34.97
2018-04-14T21:56:50.122Z,35.57
2018-04-14T21:59:20.259Z,38.80
2018-04-14T22:01:47.977Z,36.57
2018-04-14T22:04:15.608Z,38.13
2018-04-14T22:06:43.126Z,35.83
2018-04-14T22:09:11.149Z,36.20
2018-04-14T22:11:38.684Z,38.70
2018-04-14T22:14:06.215Z,36.93
2018-04-14T22:16:34.484Z,38.50
2018-04-14T22:19:02.758Z,34.27
2018-04-14T22:21:30.287Z,35.77
2018-04-14T22:23:57.805Z,36.80
2018-04-14T22:26:26.118Z,39.10
2018-04-14T22:28:54.023Z,35.70
2018-04-14T22:31:22.673Z,36.87
2018-04-14T22:33:50.177Z,38.17
2018-04-14T22:36:17.671Z,38.30
2018-04-14T22:38:46.377Z,37.60
2018-04-14T22:41:13.885Z,36.47
2018-04-14T22:43:41.418Z,40.60
2018-04-14T22:46:08.939Z,41.17
2018-04-14T22:48:37.278Z,38.90
2018-04-14T22:51:05.808Z,39.00
2018-04-14T22:53:35.093Z,38.13
2018-04-14T22:56:02.731Z,39.13
2018-04-14T22:58:30.251Z,39.47
2018-04-14T23:00:58.535Z,39.83
2018-04-14T23:03:26.809Z,41.40
2018-04-14T23:05:55.081Z,39.10
2018-04-14T23:08:22.614Z,40.80
2018-04-14T23:10:50.115Z,40.00
2018-04-14T23:13:18.385Z,39.70
2018-04-14T23:15:45.905Z,38.50
2018-04-14T23:18:13.469Z,39.53
2018-04-14T23:20:41.815Z,40.13
2018-04-14T23:23:10.124Z,38.80
2018-04-14T23:25:37.616Z,39.70
2018-04-14T23:28:05.782Z,41.53
2018-04-14T23:30:33.278Z,39.40
2018-04-14T23:33:00.791Z,41.57
2018-04-14T23:35:28.283Z,40.20
2018-04-14T23:37:55.788Z,38.70
2018-04-14T23:40:24.052Z,37.90
2018-04-14T23:42:52.332Z,39.73
2018-04-14T23:45:20.600Z,38.27
2018-04-14T23:47:48.127Z,40.27
2018-04-14T23:50:15.625Z,41.47
2018-04-14T23:52:43.900Z,42.43
2018-04-14T23:55:11.406Z,40.23
2018-04-14T23:57:39.690Z,49.50
